Time;durP1;ratioP1;P1;durP2;ratioP2;P2;SDS_P1;SDS_P2;PMS_P1;PMS_P2;Temp;Humidity;BMP_temperature;BMP_pressure;BME280_temperature;BME280_humidity;BME280_pressure;Samples;Min_cycle;Max_cycle;Signal;HPM_P1;HPM_P2
2023/12/05 00:00:46;;;;;;;14.77;9.20;;;-0.30;99.90;;;;;;4994283;28;20468;-65
2023/12/05 00:03:14;;;;;;;13.97;9.40;;;-0.30;99.90;;;;;;4998687;28;20476;-65
2023/12/05 00:05:42;;;;;;;12.20;9.10;;;-0.30;99.90;;;;;;4998817;28;20829;-65
2023/12/05 00:08:10;;;;;;;12.70;9.10;;;-0.30;99.90;;;;;;4997332;28;20480;-65
2023/12/05 00:10:38;;;;;;;12.83;9.57;;;-0.30;99.90;;;;;;4994156;28;20559;-65
2023/12/05 00:13:07;;;;;;;11.97;9.87;;;-0.30;99.90;;;;;;4996828;28;20921;-65
2023/12/05 00:15:35;;;;;;;11.93;9.47;;;-0.30;99.90;;;;;;4991123;28;20497;-65
2023/12/05 00:18:04;;;;;;;13.73;9.50;;;-0.30;99.90;;;;;;4992453;28;20483;-65
2023/12/05 00:20:32;;;;;;;15.10;10.10;;;-0.30;99.90;;;;;;4996057;28;20496;-65
2023/12/05 00:23:01;;;;;;;12.30;9.63;;;-0.30;99.90;;;;;;5002023;28;20473;-65
2023/12/05 00:25:29;;;;;;;13.47;9.53;;;-0.30;99.90;;;;;;5006769;28;20529;-65
2023/12/05 00:27:57;;;;;;;13.00;10.00;;;-0.30;99.90;;;;;;5011834;28;20497;-65
2023/12/05 00:30:25;;;;;;;14.37;10.47;;;-0.40;99.90;;;;;;5008576;28;20488;-65
2023/12/05 00:32:53;;;;;;;15.80;9.77;;;-0.40;99.90;;;;;;4996164;28;20469;-65
2023/12/05 00:35:24;;;;;;;13.13;9.50;;;-0.40;99.90;;;;;;4993478;28;21122;-65
2023/12/05 00:37:52;;;;;;;12.30;9.20;;;-0.40;99.90;;;;;;4995286;28;20497;-65
2023/12/05 00:40:20;;;;;;;14.30;9.17;;;-0.30;99.90;;;;;;4997654;28;20501;-65
2023/12/05 00:42:48;;;;;;;14.50;10.30;;;-0.30;99.90;;;;;;4994117;28;20499;-66
2023/12/05 00:45:16;;;;;;;15.30;9.60;;;-0.30;99.90;;;;;;4995615;28;20471;-65
2023/12/05 00:47:44;;;;;;;13.57;10.07;;;-0.30;99.90;;;;;;4994244;28;20484;-65
2023/12/05 00:50:12;;;;;;;14.23;10.77;;;-0.30;99.90;;;;;;4996755;28;20950;-65
2023/12/05 00:52:42;;;;;;;12.30;9.50;;;-0.30;99.90;;;;;;4998644;28;20463;-65
2023/12/05 00:55:10;;;;;;;14.60;9.33;;;-0.40;99.90;;;;;;5001407;28;20468;-65
2023/12/05 00:57:38;;;;;;;15.53;10.07;;;-0.40;99.90;;;;;;4995446;28;20547;-65
2023/12/05 01:00:11;;;;;;;13.00;9.93;;;-0.40;99.90;;;;;;4997670;28;20837;-65
2023/12/05 01:02:39;;;;;;;13.03;9.30;;;-0.40;99.90;;;;;;4999193;28;20571;-65
2023/12/05 01:05:09;;;;;;;14.47;9.57;;;-0.30;99.90;;;;;;4999064;28;20515;-65
2023/12/05 01:07:37;;;;;;;13.60;10.10;;;-0.30;99.90;;;;;;4995978;28;20489;-65
2023/12/05 01:10:07;;;;;;;14.00;10.53;;;-0.30;99.90;;;;;;5001080;28;20603;-65
2023/12/05 01:12:36;;;;;;;14.70;9.70;;;-0.30;99.90;;;;;;5000710;28;20480;-65
2023/12/05 01:15:05;;;;;;;13.90;10.23;;;-0.30;99.90;;;;;;4998649;28;20555;-65
2023/12/05 01:17:33;;;;;;;16.20;10.77;;;-0.30;99.90;;;;;;4999585;28;20480;-65
2023/12/05 01:20:01;;;;;;;14.10;10.30;;;-0.30;99.90;;;;;;4999985;28;20766;-65
2023/12/05 01:22:29;;;;;;;15.70;10.37;;;-0.30;99.90;;;;;;4999568;28;20776;-64
2023/12/05 01:24:57;;;;;;;12.70;9.53;;;-0.30;99.90;;;;;;5000140;28;20563;-65
2023/12/05 01:27:27;;;;;;;14.73;10.13;;;-0.30;99.90;;;;;;4998891;28;20480;-65
2023/12/05 01:29:56;;;;;;;13.60;9.80;;;-0.30;99.90;;;;;;4998241;28;20820;-66
2023/12/05 01:32:24;;;;;;;12.87;10.20;;;-0.30;99.90;;;;;;4999108;28;20581;-66
2023/12/05 01:34:52;;;;;;;15.43;10.53;;;-0.30;99.90;;;;;;4998494;28;20605;-66
2023/12/05 01:37:20;;;;;;;12.23;9.33;;;-0.30;99.90;;;;;;4998801;28;20603;-65
2023/12/05 01:39:48;;;;;;;16.17;10.33;;;-0.30;99.90;;;;;;5000772;28;20564;-65
2023/12/05 01:42:16;;;;;;;15.73;10.50;;;-0.30;99.90;;;;;;4995710;28;20473;-66
2023/12/05 01:44:46;;;;;;;13.80;9.80;;;-0.30;99.90;;;;;;4998580;28;20550;-65
2023/12/05 01:47:16;;;;;;;11.80;9.67;;;-0.30;99.90;;;;;;4998147;28;20550;-65
2023/12/05 01:49:45;;;;;;;12.97;9.13;;;-0.30;99.90;;;;;;4998910;28;20479;-65
2023/12/05 01:52:13;;;;;;;14.57;10.37;;;-0.30;99.90;;;;;;4995299;28;20542;-65
2023/12/05 01:54:43;;;;;;;13.20;10.13;;;-0.30;99.90;;;;;;4999973;28;20548;-65
2023/12/05 01:57:11;;;;;;;15.27;11.07;;;-0.30;99.90;;;;;;4999996;28;20472;-65
2023/12/05 01:59:40;;;;;;;13.40;10.80;;;-0.30;99.90;;;;;;4997628;28;20575;-65
2023/12/05 02:02:09;;;;;;;12.70;10.10;;;-0.30;99.90;;;;;;4997341;28;20500;-65
2023/12/05 02:04:39;;;;;;;14.50;9.93;;;-0.20;99.90;;;;;;4998226;28;20472;-65
2023/12/05 02:07:07;;;;;;;14.27;9.87;;;-0.20;99.90;;;;;;4996954;28;20573;-65
2023/12/05 02:09:37;;;;;;;16.03;10.83;;;-0.20;99.90;;;;;;4998928;28;20505;-65
2023/12/05 02:12:05;;;;;;;12.93;10.10;;;-0.20;99.90;;;;;;4997509;28;20491;-65
2023/12/05 02:14:34;;;;;;;13.27;10.33;;;-0.20;99.90;;;;;;4999205;28;20564;-65
2023/12/05 02:17:11;;;;;;;17.63;11.00;;;-0.20;99.90;;;;;;4999046;28;20493;-65
2023/12/05 02:19:52;;;;;;;13.73;10.70;;;-0.20;99.90;;;;;;4999252;28;20575;-65
2023/12/05 02:22:42;;;;;;;16.70;11.23;;;-0.20;99.90;;;;;;4999788;28;20523;-65
2023/12/05 02:25:22;;;;;;;13.70;10.10;;;-0.20;99.90;;;;;;4998997;28;21012;-65
2023/12/05 02:27:52;;;;;;;16.13;11.07;;;-0.20;99.90;;;;;;4997388;28;20929;-65
2023/12/05 02:30:20;;;;;;;16.37;10.30;;;-0.20;99.90;;;;;;4994392;28;20492;-65
2023/12/05 02:32:48;;;;;;;16.27;11.40;;;-0.20;99.90;;;;;;4995833;28;20476;-65
2023/12/05 02:35:17;;;;;;;17.63;11.37;;;-0.20;99.90;;;;;;4996022;28;20855;-65
2023/12/05 02:37:53;;;;;;;16.17;11.87;;;-0.20;99.90;;;;;;4997371;28;20575;-65
2023/12/05 02:40:28;;;;;;;16.40;10.93;;;-0.20;99.90;;;;;;5004448;28;20496;-65
2023/12/05 02:42:58;;;;;;;14.90;11.57;;;-0.20;99.90;;;;;;5019201;28;20491;-65
2023/12/05 02:45:30;;;;;;;13.73;11.40;;;-0.20;99.90;;;;;;5004645;28;20480;-66
2023/12/05 02:48:01;;;;;;;14.47;11.37;;;-0.20;99.90;;;;;;4998291;28;20951;-65
2023/12/05 02:50:30;;;;;;;15.70;11.73;;;-0.20;99.90;;;;;;4999205;28;20484;-65
2023/12/05 02:52:58;;;;;;;15.63;11.77;;;-0.20;99.90;;;;;;4998674;28;21042;-65
2023/12/05 02:55:25;;;;;;;17.60;12.53;;;-0.20;99.90;;;;;;4996880;28;20559;-65
2023/12/05 02:57:54;;;;;;;16.43;12.07;;;-0.20;99.90;;;;;;4992837;28;20583;-65
2023/12/05 03:00:23;;;;;;;17.20;12.37;;;-0.20;99.90;;;;;;4996572;28;20496;-65
2023/12/05 03:02:51;;;;;;;13.60;10.87;;;-0.10;99.90;;;;;;4994519;28;20475;-65
2023/12/05 03:05:20;;;;;;;16.50;11.87;;;-0.10;99.90;;;;;;4994131;28;20563;-65
2023/12/05 03:07:48;;;;;;;15.40;11.30;;;-0.10;99.90;;;;;;5000315;28;20578;-65
2023/12/05 03:10:16;;;;;;;16.33;12.17;;;-0.10;99.90;;;;;;4997033;28;20568;-65
2023/12/05 03:12:44;;;;;;;18.10;12.10;;;-0.10;99.90;;;;;;4998727;28;20491;-65
2023/12/05 03:15:12;;;;;;;15.07;12.20;;;-0.10;99.90;;;;;;4997879;28;20867;-65
2023/12/05 03:17:41;;;;;;;17.33;12.10;;;-0.10;99.90;;;;;;4996413;28;20595;-65
2023/12/05 03:20:10;;;;;;;17.23;12.07;;;-0.10;99.90;;;;;;4996923;28;20545;-65
2023/12/05 03:22:38;;;;;;;16.10;11.60;;;-0.10;99.90;;;;;;4996964;28;20468;-66
2023/12/05 03:25:07;;;;;;;17.10;11.90;;;-0.20;99.90;;;;;;4995875;28;20555;-65
2023/12/05 03:27:36;;;;;;;16.00;12.73;;;-0.20;99.90;;;;;;4994219;28;20491;-65
2023/12/05 03:30:05;;;;;;;19.57;13.43;;;-0.20;99.90;;;;;;4994355;28;20778;-65
2023/12/05 03:32:33;;;;;;;17.77;12.43;;;-0.20;99.90;;;;;;4996366;28;20508;-65
2023/12/05 03:35:03;;;;;;;19.23;13.37;;;-0.20;99.90;;;;;;4995032;28;20468;-65
2023/12/05 03:37:31;;;;;;;18.87;13.10;;;-0.20;99.90;;;;;;4998251;28;20579;-65
2023/12/05 03:39:59;;;;;;;19.77;13.40;;;-0.20;99.90;;;;;;4995781;28;20623;-65
2023/12/05 03:42:28;;;;;;;17.17;12.33;;;-0.20;99.90;;;;;;4995475;28;20475;-65
2023/12/05 03:44:56;;;;;;;18.17;12.60;;;-0.20;99.90;;;;;;4997588;28;20890;-65
2023/12/05 03:47:26;;;;;;;18.27;13.40;;;-0.20;99.90;;;;;;4994692;28;20575;-65
2023/12/05 03:49:54;;;;;;;21.93;12.90;;;-0.30;99.90;;;;;;4997872;28;20795;-65
2023/12/05 03:52:23;;;;;;;19.10;13.77;;;-0.30;99.90;;;;;;4998074;28;20961;-65
2023/12/05 03:54:51;;;;;;;21.70;15.10;;;-0.30;99.90;;;;;;4996767;28;20559;-65
2023/12/05 03:57:19;;;;;;;20.47;14.40;;;-0.20;99.90;;;;;;4997581;28;20599;-65
2023/12/05 03:59:47;;;;;;;19.97;13.50;;;-0.30;99.90;;;;;;4994443;28;20492;-65
2023/12/05 04:02:15;;;;;;;17.03;13.30;;;-0.30;99.90;;;;;;4998346;28;20507;-65
2023/12/05 04:04:43;;;;;;;22.43;13.87;;;-0.30;99.90;;;;;;4998498;28;20464;-65
2023/12/05 04:07:11;;;;;;;18.57;14.17;;;-0.30;99.90;;;;;;4997210;28;20488;-65
2023/12/05 04:09:40;;;;;;;20.27;14.17;;;-0.30;99.90;;;;;;4996932;28;20483;-65
2023/12/05 04:12:10;;;;;;;19.90;14.13;;;-0.30;99.90;;;;;;4995012;28;20974;-65
2023/12/05 04:14:39;;;;;;;18.30;13.97;;;-0.30;99.90;;;;;;4996560;28;20484;-65
2023/12/05 04:17:07;;;;;;;21.63;15.00;;;-0.30;99.90;;;;;;4996442;28;20599;-65
2023/12/05 04:19:35;;;;;;;19.33;14.53;;;-0.30;99.90;;;;;;4996839;28;20605;-65
2023/12/05 04:22:03;;;;;;;19.90;14.60;;;-0.30;99.90;;;;;;5000599;28;20476;-65
2023/12/05 04:24:31;;;;;;;20.87;13.80;;;-0.30;99.90;;;;;;4997765;28;20985;-65
2023/12/05 04:27:01;;;;;;;19.07;14.03;;;-0.30;99.90;;;;;;4996161;28;20501;-65
2023/12/05 04:29:29;;;;;;;20.53;13.90;;;-0.30;99.90;;;;;;4997512;28;20937;-65
2023/12/05 04:31:58;;;;;;;21.20;15.07;;;-0.30;99.90;;;;;;4997939;28;20591;-65
2023/12/05 04:34:26;;;;;;;21.37;14.77;;;-0.30;99.90;;;;;;4997035;28;20476;-65
2023/12/05 04:36:54;;;;;;;23.30;16.03;;;-0.30;99.90;;;;;;4993965;28;20579;-65
2023/12/05 04:39:22;;;;;;;21.67;14.97;;;-0.30;99.90;;;;;;4997036;28;20496;-65
2023/12/05 04:41:50;;;;;;;21.90;15.33;;;-0.30;99.90;;;;;;4994318;28;20994;-65
2023/12/05 04:44:21;;;;;;;22.57;14.93;;;-0.30;99.90;;;;;;4994134;28;20503;-65
2023/12/05 04:46:49;;;;;;;26.90;17.13;;;-0.30;99.90;;;;;;4993516;28;20558;-65
2023/12/05 04:49:17;;;;;;;22.93;15.23;;;-0.30;99.90;;;;;;4994715;28;20500;-65
2023/12/05 04:51:45;;;;;;;21.83;15.17;;;-0.40;99.90;;;;;;4995103;28;20746;-64
2023/12/05 04:54:13;;;;;;;26.10;16.27;;;-0.40;99.90;;;;;;5000627;28;20460;-65
2023/12/05 04:56:42;;;;;;;23.57;16.70;;;-0.40;99.90;;;;;;5019331;28;20531;-65
2023/12/05 04:59:10;;;;;;;22.80;16.60;;;-0.40;99.90;;;;;;5010381;28;20568;-65
2023/12/05 05:01:39;;;;;;;23.70;16.27;;;-0.40;99.90;;;;;;4995269;28;20549;-65
2023/12/05 05:04:07;;;;;;;24.17;17.10;;;-0.40;99.90;;;;;;4997115;28;20549;-65
2023/12/05 05:06:35;;;;;;;22.83;15.00;;;-0.50;99.90;;;;;;4994118;28;20511;-65
2023/12/05 05:09:04;;;;;;;21.63;16.37;;;-0.50;99.90;;;;;;4995998;28;20556;-65
2023/12/05 05:11:32;;;;;;;23.50;16.80;;;-0.50;99.90;;;;;;4998691;28;21022;-65
2023/12/05 05:14:00;;;;;;;22.63;16.03;;;-0.50;99.90;;;;;;4991747;28;20631;-65
2023/12/05 05:16:30;;;;;;;27.03;17.40;;;-0.50;99.90;;;;;;4995389;28;20855;-65
2023/12/05 05:19:00;;;;;;;22.47;16.77;;;-0.50;99.90;;;;;;4991726;28;20930;-66
2023/12/05 05:21:28;;;;;;;29.57;18.37;;;-0.50;99.90;;;;;;4997838;28;20493;-65
2023/12/05 05:23:56;;;;;;;26.20;17.83;;;-0.50;99.90;;;;;;4994744;28;20499;-65
2023/12/05 05:26:24;;;;;;;23.97;16.33;;;-0.50;99.90;;;;;;4997860;28;20561;-65
2023/12/05 05:28:52;;;;;;;28.13;17.67;;;-0.50;99.90;;;;;;4992245;28;20580;-66
2023/12/05 05:31:20;;;;;;;24.97;16.67;;;-0.50;99.90;;;;;;4994839;28;20473;-65
2023/12/05 05:33:48;;;;;;;25.00;17.50;;;-0.50;99.90;;;;;;4988295;28;20472;-65
2023/12/05 05:36:18;;;;;;;26.27;17.90;;;-0.50;99.90;;;;;;4994773;28;20546;-64
2023/12/05 05:38:46;;;;;;;26.93;17.27;;;-0.50;99.90;;;;;;4999107;28;20483;-65
2023/12/05 05:41:14;;;;;;;22.40;16.73;;;-0.50;99.90;;;;;;4996863;28;20488;-65
2023/12/05 05:43:42;;;;;;;25.63;17.40;;;-0.50;99.90;;;;;;4999010;28;20546;-64
2023/12/05 05:46:10;;;;;;;27.70;16.70;;;-0.50;99.90;;;;;;4999411;28;20948;-65
2023/12/05 05:48:38;;;;;;;24.33;16.27;;;-0.50;99.90;;;;;;4994631;28;20500;-65
2023/12/05 05:51:06;;;;;;;26.53;17.63;;;-0.50;99.90;;;;;;4995680;28;20510;-65
2023/12/05 05:53:36;;;;;;;26.07;16.87;;;-0.50;99.90;;;;;;4998120;28;20477;-64
2023/12/05 05:56:04;;;;;;;27.30;19.17;;;-0.60;99.90;;;;;;4997793;28;20519;-66
2023/12/05 05:58:34;;;;;;;29.63;18.00;;;-0.60;99.90;;;;;;4995873;28;20488;-65
2023/12/05 06:01:02;;;;;;;27.67;18.10;;;-0.60;99.90;;;;;;4991097;28;20940;-65
2023/12/05 06:03:31;;;;;;;23.10;16.70;;;-0.60;99.90;;;;;;4989034;28;20596;-65
2023/12/05 06:05:59;;;;;;;26.03;17.10;;;-0.60;99.90;;;;;;4994412;28;20493;-65
2023/12/05 06:08:28;;;;;;;27.13;18.20;;;-0.60;99.90;;;;;;4998223;28;20533;-65
2023/12/05 06:10:57;;;;;;;27.23;18.17;;;-0.60;99.90;;;;;;4990987;28;20511;-65
2023/12/05 06:13:25;;;;;;;25.23;18.20;;;-0.60;99.90;;;;;;4997089;28;20472;-65
2023/12/05 06:15:53;;;;;;;29.03;18.90;;;-0.60;99.90;;;;;;5000720;28;20498;-65
2023/12/05 06:18:22;;;;;;;25.57;18.20;;;-0.60;99.90;;;;;;4997741;28;20506;-65
2023/12/05 06:20:51;;;;;;;26.13;19.03;;;-0.60;99.90;;;;;;4997716;28;21015;-65
2023/12/05 06:23:19;;;;;;;27.77;19.03;;;-0.50;99.90;;;;;;4997027;28;20567;-65
2023/12/05 06:25:47;;;;;;;30.97;19.00;;;-0.60;99.90;;;;;;4991829;28;20873;-65
2023/12/05 06:28:17;;;;;;;25.70;17.60;;;-0.60;99.90;;;;;;4992290;28;20568;-66
2023/12/05 06:30:45;;;;;;;28.77;19.53;;;-0.60;99.90;;;;;;4993719;28;20779;-65
2023/12/05 06:33:13;;;;;;;26.87;17.80;;;-0.60;99.90;;;;;;4997993;28;20483;-65
2023/12/05 06:35:41;;;;;;;26.03;17.50;;;-0.60;99.90;;;;;;4993963;28;20500;-65
2023/12/05 06:38:09;;;;;;;29.90;19.23;;;-0.60;99.90;;;;;;4994872;28;20602;-65
2023/12/05 06:40:37;;;;;;;28.27;18.77;;;-0.60;99.90;;;;;;4993338;28;20618;-65
2023/12/05 06:43:05;;;;;;;24.73;18.80;;;-0.60;99.90;;;;;;4998529;28;20584;-65
2023/12/05 06:45:35;;;;;;;30.37;20.90;;;-0.60;99.90;;;;;;4997081;28;21035;-65
2023/12/05 06:48:04;;;;;;;28.60;18.50;;;-0.60;99.90;;;;;;4991989;28;20555;-65
2023/12/05 06:50:32;;;;;;;29.73;18.60;;;-0.60;99.90;;;;;;4995582;28;20853;-65
2023/12/05 06:53:02;;;;;;;27.87;18.63;;;-0.60;99.90;;;;;;4994809;28;20473;-65
2023/12/05 06:55:30;;;;;;;26.90;18.37;;;-0.60;99.90;;;;;;4994308;28;20466;-65
2023/12/05 06:57:58;;;;;;;29.70;19.27;;;-0.60;99.90;;;;;;4993553;28;21023;-65
2023/12/05 07:00:26;;;;;;;29.53;19.97;;;-0.60;99.90;;;;;;4998168;28;20879;-65
2023/12/05 07:02:55;;;;;;;28.43;19.37;;;-0.60;99.90;;;;;;4994071;28;20473;-65
2023/12/05 07:05:23;;;;;;;28.80;18.47;;;-0.60;99.90;;;;;;4998457;28;21075;-65
2023/12/05 07:07:51;;;;;;;27.33;19.13;;;-0.60;99.90;;;;;;5017116;28;20501;-65
2023/12/05 07:10:19;;;;;;;27.87;20.30;;;-0.50;99.90;;;;;;5011627;28;20472;-65
2023/12/05 07:12:48;;;;;;;27.27;19.40;;;-0.50;99.90;;;;;;4996078;28;20981;-65
2023/12/05 07:15:16;;;;;;;26.40;19.50;;;-0.50;99.90;;;;;;4994506;28;20673;-65
2023/12/05 07:17:44;;;;;;;28.97;18.93;;;-0.60;99.90;;;;;;4994191;28;20484;-65
2023/12/05 07:20:14;;;;;;;29.33;19.43;;;-0.60;99.90;;;;;;4996098;28;20532;-65
2023/12/05 07:22:43;;;;;;;28.17;19.87;;;-0.60;99.90;;;;;;4995807;28;20587;-65
2023/12/05 07:25:11;;;;;;;28.10;19.53;;;-0.60;99.90;;;;;;4993440;28;20532;-65
2023/12/05 07:27:39;;;;;;;28.53;19.57;;;-0.60;99.90;;;;;;4995218;28;20666;-65
2023/12/05 07:30:08;;;;;;;30.63;19.27;;;-0.60;99.90;;;;;;4996123;28;20496;-65
2023/12/05 07:32:36;;;;;;;30.27;21.00;;;-0.60;99.90;;;;;;4992691;28;20548;-65
2023/12/05 07:35:05;;;;;;;29.67;19.43;;;-0.60;99.90;;;;;;4994220;28;20881;-65
2023/12/05 07:37:35;;;;;;;33.80;20.70;;;-0.60;99.90;;;;;;4995707;28;20579;-65
2023/12/05 07:40:03;;;;;;;31.70;20.43;;;-0.60;99.90;;;;;;4996755;28;20531;-65
2023/12/05 07:42:31;;;;;;;30.50;20.17;;;-0.60;99.90;;;;;;4995572;28;20520;-65
2023/12/05 07:44:59;;;;;;;32.00;20.87;;;-0.60;99.90;;;;;;4991471;28;20844;-65
2023/12/05 07:47:27;;;;;;;28.57;19.40;;;-0.50;99.90;;;;;;4992905;28;20592;-65
2023/12/05 07:49:55;;;;;;;25.87;18.83;;;-0.60;99.90;;;;;;4993560;28;20517;-65
2023/12/05 07:52:23;;;;;;;28.63;19.60;;;-0.60;99.90;;;;;;4992455;28;20506;-65
2023/12/05 07:54:53;;;;;;;27.33;20.80;;;-0.60;99.90;;;;;;4996465;28;20480;-65
2023/12/05 07:57:22;;;;;;;28.43;20.20;;;-0.50;99.90;;;;;;4995381;28;20469;-65
2023/12/05 07:59:50;;;;;;;29.73;20.70;;;-0.50;99.90;;;;;;4994236;28;20473;-65
2023/12/05 08:02:19;;;;;;;29.43;19.07;;;-0.50;99.90;;;;;;4992857;28;20551;-65
2023/12/05 08:04:47;;;;;;;30.47;20.53;;;-0.50;99.90;;;;;;4989862;28;20992;-65
2023/12/05 08:07:15;;;;;;;30.33;20.23;;;-0.50;99.90;;;;;;4990177;28;20548;-65
2023/12/05 08:09:43;;;;;;;28.97;19.93;;;-0.50;99.90;;;;;;4991114;28;20560;-65
2023/12/05 08:12:12;;;;;;;32.90;21.40;;;-0.50;99.90;;;;;;4992854;28;20473;-65
2023/12/05 08:14:40;;;;;;;29.40;19.77;;;-0.50;99.90;;;;;;4989682;28;20469;-65
2023/12/05 08:17:08;;;;;;;28.77;19.20;;;-0.50;99.90;;;;;;4994028;28;20538;-65
2023/12/05 08:19:36;;;;;;;29.83;20.63;;;-0.40;99.90;;;;;;4992757;28;21162;-65
2023/12/05 08:22:04;;;;;;;29.43;20.70;;;-0.40;99.90;;;;;;4994501;28;20520;-65
2023/12/05 08:24:32;;;;;;;31.87;21.30;;;-0.40;99.90;;;;;;4994282;28;20468;-65
2023/12/05 08:27:00;;;;;;;30.00;21.07;;;-0.40;99.90;;;;;;4993374;28;20996;-65
2023/12/05 08:29:30;;;;;;;32.67;21.33;;;-0.40;99.90;;;;;;4991241;28;20474;-65
2023/12/05 08:31:58;;;;;;;34.43;20.03;;;-0.50;99.90;;;;;;4989893;28;20925;-65
2023/12/05 08:34:26;;;;;;;33.50;20.37;;;-0.50;99.90;;;;;;4987359;28;20952;-65
2023/12/05 08:36:55;;;;;;;32.33;22.00;;;-0.40;99.90;;;;;;4990820;28;20494;-65
2023/12/05 08:39:23;;;;;;;32.70;22.30;;;-0.40;99.90;;;;;;4997486;28;20477;-65
2023/12/05 08:41:52;;;;;;;32.23;21.90;;;-0.40;99.90;;;;;;4997459;28;20493;-65
2023/12/05 08:44:20;;;;;;;30.40;20.90;;;-0.40;99.90;;;;;;4998210;28;20469;-65
2023/12/05 08:46:50;;;;;;;29.90;21.10;;;-0.40;99.90;;;;;;4995787;28;20489;-64
2023/12/05 08:49:18;;;;;;;27.67;20.53;;;-0.40;99.90;;;;;;4998320;28;20563;-65
2023/12/05 08:51:46;;;;;;;29.63;19.60;;;-0.30;99.90;;;;;;4994322;28;20508;-65
2023/12/05 08:54:14;;;;;;;34.40;23.00;;;-0.30;99.90;;;;;;4993415;28;20480;-65
2023/12/05 08:56:42;;;;;;;32.67;21.77;;;-0.30;99.90;;;;;;4991214;28;20516;-65
2023/12/05 08:59:10;;;;;;;28.60;20.70;;;-0.30;99.90;;;;;;4998355;28;20811;-65
2023/12/05 09:01:38;;;;;;;28.43;20.03;;;-0.30;99.90;;;;;;4998190;28;20563;-65
2023/12/05 09:04:09;;;;;;;31.80;21.53;;;-0.30;99.90;;;;;;4993661;28;20469;-65
2023/12/05 09:06:37;;;;;;;31.07;20.93;;;-0.30;99.90;;;;;;4995388;28;20500;-65
2023/12/05 09:09:05;;;;;;;30.20;20.57;;;-0.30;99.90;;;;;;4996156;28;20497;-65
2023/12/05 09:11:33;;;;;;;28.50;20.63;;;-0.30;99.90;;;;;;4996600;28;20481;-65
2023/12/05 09:14:01;;;;;;;28.50;21.27;;;-0.30;99.90;;;;;;4996847;28;20476;-65
2023/12/05 09:16:29;;;;;;;29.33;20.90;;;-0.30;99.90;;;;;;5001536;28;20909;-65
2023/12/05 09:18:57;;;;;;;32.13;21.67;;;-0.30;99.90;;;;;;5000812;28;20480;-65
2023/12/05 09:21:27;;;;;;;31.10;22.07;;;-0.30;99.90;;;;;;5016425;28;20459;-65
2023/12/05 09:23:55;;;;;;;32.00;21.07;;;-0.30;99.90;;;;;;5018968;28;20568;-65
2023/12/05 09:26:23;;;;;;;34.20;22.53;;;-0.30;99.90;;;;;;5003464;28;21012;-66
2023/12/05 09:28:53;;;;;;;35.47;22.57;;;-0.30;99.90;;;;;;4999591;28;20492;-66
2023/12/05 09:31:22;;;;;;;33.50;21.47;;;-0.30;99.90;;;;;;4998011;28;20529;-65
2023/12/05 09:33:51;;;;;;;31.73;21.80;;;-0.30;99.90;;;;;;4996810;28;20809;-65
2023/12/05 09:36:19;;;;;;;29.97;20.67;;;-0.30;99.90;;;;;;4999985;28;20785;-65
2023/12/05 09:38:48;;;;;;;30.97;21.57;;;-0.30;99.90;;;;;;4998931;28;20491;-65
2023/12/05 09:41:17;;;;;;;32.93;21.70;;;-0.30;99.90;;;;;;5001383;28;20475;-66
2023/12/05 09:43:46;;;;;;;34.10;22.37;;;-0.30;99.90;;;;;;5001099;28;20597;-65
2023/12/05 09:46:16;;;;;;;29.40;21.87;;;-0.30;99.90;;;;;;4999543;28;20496;-65
2023/12/05 09:48:47;;;;;;;29.10;20.17;;;-0.30;99.90;;;;;;4996231;28;20488;-65
2023/12/05 09:51:16;;;;;;;32.20;22.43;;;-0.30;99.90;;;;;;5000135;28;20542;-65
2023/12/05 09:53:45;;;;;;;31.33;21.10;;;-0.30;99.90;;;;;;5002259;28;21135;-65
2023/12/05 09:56:15;;;;;;;33.20;22.00;;;-0.30;99.90;;;;;;5000119;28;20553;-65
2023/12/05 09:58:44;;;;;;;34.07;22.70;;;-0.20;99.90;;;;;;5000362;28;20547;-65
2023/12/05 10:01:15;;;;;;;30.80;21.93;;;-0.20;99.90;;;;;;4999773;28;20477;-65
2023/12/05 10:03:45;;;;;;;32.50;22.17;;;-0.20;99.90;;;;;;4997163;28;20496;-65
2023/12/05 10:06:16;;;;;;;32.60;21.80;;;-0.20;99.90;;;;;;4996037;28;21216;-65
2023/12/05 10:08:48;;;;;;;32.10;21.77;;;-0.20;99.90;;;;;;4999598;28;20694;-65
2023/12/05 10:11:18;;;;;;;33.47;22.37;;;-0.20;99.90;;;;;;4996356;28;20552;-65
2023/12/05 10:13:47;;;;;;;34.67;22.80;;;-0.10;99.90;;;;;;4998137;28;20464;-65
2023/12/05 10:16:17;;;;;;;30.13;22.93;;;-0.10;99.90;;;;;;4999220;28;21104;-65
2023/12/05 10:18:47;;;;;;;34.03;22.33;;;-0.10;99.90;;;;;;4998341;28;20582;-65
2023/12/05 10:21:15;;;;;;;32.60;21.70;;;-0.10;99.90;;;;;;4999963;28;20488;-65
2023/12/05 10:23:43;;;;;;;32.63;23.00;;;0.00;99.90;;;;;;4998527;28;20492;-65
2023/12/05 10:26:11;;;;;;;30.57;21.67;;;0.00;99.90;;;;;;4993499;28;21272;-65
2023/12/05 10:28:51;;;;;;;30.37;21.40;;;0.00;99.90;;;;;;4995761;28;20511;-65
2023/12/05 10:31:19;;;;;;;29.70;22.30;;;0.00;99.90;;;;;;4998506;28;20722;-66
2023/12/05 10:33:49;;;;;;;35.10;22.93;;;0.00;99.90;;;;;;5000141;28;20472;-65
2023/12/05 10:36:18;;;;;;;34.17;22.57;;;0.10;99.90;;;;;;5001358;28;20527;-65
2023/12/05 10:38:47;;;;;;;32.93;21.70;;;0.10;99.90;;;;;;4999907;28;20537;-65
2023/12/05 10:41:23;;;;;;;32.10;21.77;;;0.10;99.90;;;;;;4991387;28;20568;-65
2023/12/05 10:43:55;;;;;;;30.77;22.37;;;0.10;99.90;;;;;;4990775;28;20503;-65
2023/12/05 10:46:25;;;;;;;34.03;22.03;;;0.10;99.90;;;;;;4993214;28;20516;-65
2023/12/05 10:48:55;;;;;;;34.20;21.97;;;0.20;99.90;;;;;;4992270;28;20491;-65
2023/12/05 10:51:26;;;;;;;34.90;22.67;;;0.20;99.90;;;;;;4981564;28;20500;-65
2023/12/05 10:53:55;;;;;;;29.97;22.40;;;0.20;99.90;;;;;;4988804;28;20467;-65
2023/12/05 10:56:23;;;;;;;32.90;22.83;;;0.20;99.90;;;;;;4988487;28;20495;-65
2023/12/05 10:58:54;;;;;;;33.47;22.00;;;0.20;99.90;;;;;;4989586;28;21288;-65
2023/12/05 11:01:24;;;;;;;33.33;21.80;;;0.20;99.90;;;;;;4989640;28;21692;-65
2023/12/05 11:03:55;;;;;;;30.23;21.20;;;0.30;99.90;;;;;;4996254;28;21011;-65
2023/12/05 11:06:25;;;;;;;37.90;25.07;;;0.20;99.90;;;;;;4995383;28;20917;-65
2023/12/05 11:08:53;;;;;;;37.20;24.93;;;0.20;99.90;;;;;;4990111;28;20488;-65
2023/12/05 11:11:24;;;;;;;32.50;22.23;;;0.20;99.90;;;;;;4995775;28;20473;-65
2023/12/05 11:13:54;;;;;;;34.87;23.00;;;0.20;99.90;;;;;;4996747;28;20544;-65
2023/12/05 11:16:26;;;;;;;29.90;22.30;;;0.20;99.90;;;;;;4998846;28;21004;-65
2023/12/05 11:19:05;;;;;;;30.53;21.73;;;0.20;99.90;;;;;;4996914;28;20554;-65
2023/12/05 11:21:46;;;;;;;33.00;22.27;;;0.20;99.90;;;;;;4994974;28;20491;-65
2023/12/05 11:24:34;;;;;;;34.17;22.10;;;0.20;99.90;;;;;;4992588;28;20511;-65
2023/12/05 11:27:17;;;;;;;33.20;22.80;;;0.20;99.90;;;;;;4999439;28;20488;-67
2023/12/05 11:30:18;;;;;;;31.20;22.20;;;0.20;99.90;;;;;;5002324;28;20563;-66
2023/12/05 11:32:58;;;;;;;32.40;21.30;;;0.20;99.90;;;;;;5005098;28;20468;-65
2023/12/05 11:35:38;;;;;;;31.63;20.77;;;0.20;99.90;;;;;;5010372;28;20556;-66
2023/12/05 11:38:11;;;;;;;32.00;21.67;;;0.20;99.90;;;;;;5009217;28;21015;-65
2023/12/05 11:40:39;;;;;;;33.77;23.90;;;0.20;99.90;;;;;;5006821;28;20476;-65
2023/12/05 11:43:08;;;;;;;33.17;22.73;;;0.30;99.90;;;;;;4997769;28;20548;-65
2023/12/05 11:45:41;;;;;;;30.57;20.37;;;0.30;99.90;;;;;;4998828;28;20501;-65
2023/12/05 11:48:11;;;;;;;31.37;21.20;;;0.30;99.90;;;;;;4997824;28;20583;-65
2023/12/05 11:50:41;;;;;;;31.57;21.63;;;0.40;99.90;;;;;;4994339;28;20551;-65
2023/12/05 11:53:10;;;;;;;39.40;26.20;;;0.40;99.90;;;;;;4995298;28;20957;-65
2023/12/05 11:55:41;;;;;;;30.17;20.97;;;0.40;99.90;;;;;;4996650;28;21976;-65
2023/12/05 11:58:28;;;;;;;29.07;20.73;;;0.50;99.90;;;;;;4992963;28;20935;-65
2023/12/05 12:01:06;;;;;;;27.60;20.43;;;0.50;99.90;;;;;;4997875;28;20479;-65
2023/12/05 12:03:45;;;;;;;33.63;22.00;;;0.50;99.90;;;;;;4996268;28;20503;-66
2023/12/05 12:06:16;;;;;;;33.93;21.17;;;0.40;99.90;;;;;;4995100;28;20892;-66
2023/12/05 12:08:45;;;;;;;32.27;21.40;;;0.50;99.90;;;;;;4994002;28;21060;-65
2023/12/05 12:11:13;;;;;;;26.90;20.87;;;0.50;99.90;;;;;;4997338;28;20851;-65
2023/12/05 12:13:43;;;;;;;28.07;20.87;;;0.50;99.90;;;;;;4997440;28;21172;-65
2023/12/05 12:16:15;;;;;;;29.57;21.43;;;0.60;99.90;;;;;;4995786;28;20500;-65
2023/12/05 12:18:43;;;;;;;32.50;22.30;;;0.60;99.90;;;;;;4996470;28;20492;-65
2023/12/05 12:21:22;;;;;;;33.20;20.77;;;0.60;99.90;;;;;;4993785;28;20484;-65
2023/12/05 12:23:55;;;;;;;29.80;20.13;;;0.60;99.90;;;;;;4992739;28;20488;-65
2023/12/05 12:26:23;;;;;;;31.57;21.20;;;0.60;99.90;;;;;;4988142;28;20554;-65
2023/12/05 12:28:51;;;;;;;30.47;20.93;;;0.60;99.90;;;;;;4994300;28;20514;-65
2023/12/05 12:31:26;;;;;;;30.63;20.80;;;0.60;99.90;;;;;;4996246;28;20485;-65
2023/12/05 12:33:56;;;;;;;31.93;21.20;;;0.60;99.90;;;;;;4997751;28;20459;-65
2023/12/05 12:36:25;;;;;;;28.40;19.50;;;0.60;99.90;;;;;;4992337;28;20532;-65
2023/12/05 12:38:55;;;;;;;31.63;22.60;;;0.60;99.90;;;;;;4994399;28;20617;-65
2023/12/05 12:41:26;;;;;;;31.07;21.43;;;0.60;99.90;;;;;;4995032;28;20472;-65